Archival Weather

Yakutsk

Yakutsk, Russia (UEEE)

Report from: Tuesday, June 6, 2023 11:30 AM JST
Current time: Tuesday, July 16, 2024 6:08 PM JST

Current weather – Weather history – Daily summaries
Weather forecast

Temperature18.0°C (64.4°F)
Dew point4.0°C (39.2°F)
Winds 7.8 kts (4 m/s, 8.9 mph) West (270°)
Clouds Sky clear
Altimeter29.53 in.Hg (1000 mB)
Precip. events QF 1:21 PM
Relative humidity39 %
Density altitude923 ft. (281 m)
Remarks Ceiling and visibility OK
No significant changes expected in the next two hours
Flight conditions Visual Meteorological Conditions
Raw dataUEEE 060230Z 27004MPS CAVOK 18/04 Q1000 R05/09//60 NOSIG RMK QFE741
An error has occurred. This application may no longer respond until reloaded. Reload 🗙